Time;durP1;ratioP1;P1;durP2;ratioP2;P2;SDS_P1;SDS_P2;PMS_P1;PMS_P2;Temp;Humidity;BMP_temperature;BMP_pressure;BME280_temperature;BME280_humidity;BME280_pressure;Samples;Min_cycle;Max_cycle;Signal;HPM_P1;HPM_P2
2023/05/13 00:02:07;;;;;;;0.75;0.75;;;9.50;99.90;;;;;;5030816;28;20443;-79
2023/05/13 00:04:37;;;;;;;0.80;0.80;;;9.50;99.90;;;;;;5026724;28;20553;-78
2023/05/13 00:07:04;;;;;;;1.40;0.70;;;9.50;99.90;;;;;;5026967;28;20433;-79
2023/05/13 00:09:31;;;;;;;0.68;0.68;;;9.50;99.90;;;;;;5029434;28;20496;-79
2023/05/13 00:11:57;;;;;;;2.37;0.97;;;9.50;99.90;;;;;;5029001;28;20519;-79
2023/05/13 00:14:24;;;;;;;1.00;1.00;;;9.50;99.90;;;;;;5027106;28;20955;-79
2023/05/13 00:16:51;;;;;;;2.00;0.80;;;9.50;99.90;;;;;;5028909;28;20841;-79
2023/05/13 00:19:17;;;;;;;0.60;0.60;;;9.40;99.90;;;;;;5028673;28;20423;-79
2023/05/13 00:21:44;;;;;;;3.15;1.10;;;9.40;99.90;;;;;;5030256;28;20886;-79
2023/05/13 00:24:11;;;;;;;1.80;1.10;;;9.40;99.90;;;;;;5018538;28;20809;-78
2023/05/13 00:26:41;;;;;;;0.75;0.75;;;9.30;99.90;;;;;;5030121;28;20434;-78
2023/05/13 00:29:07;;;;;;;1.05;1.05;;;9.30;99.90;;;;;;5026285;28;20499;-78
2023/05/13 00:31:34;;;;;;;1.50;0.93;;;9.30;99.90;;;;;;5024678;28;20537;-79
2023/05/13 00:34:01;;;;;;;0.90;0.60;;;9.50;99.90;;;;;;5025758;28;20479;-78
2023/05/13 00:36:28;;;;;;;1.85;0.93;;;9.50;99.90;;;;;;5030158;28;20446;-78
2023/05/13 00:38:55;;;;;;;1.60;1.20;;;9.60;99.90;;;;;;5029474;28;20449;-79
2023/05/13 00:41:22;;;;;;;0.70;0.70;;;9.70;99.90;;;;;;5027031;28;20472;-81
2023/05/13 00:43:48;;;;;;;2.03;1.40;;;9.80;99.90;;;;;;5028960;28;20450;-79
2023/05/13 00:46:15;;;;;;;0.77;0.67;;;9.90;99.90;;;;;;5028187;28;20435;-79
2023/05/13 00:48:42;;;;;;;2.08;0.77;;;10.00;99.90;;;;;;5030196;28;20431;-79
2023/05/13 00:51:09;;;;;;;0.68;0.68;;;10.10;99.90;;;;;;5020775;28;20446;-79
2023/05/13 00:53:37;;;;;;;1.60;1.50;;;10.20;99.90;;;;;;5016785;28;20431;-79
2023/05/13 00:56:04;;;;;;;0.93;0.90;;;10.20;99.90;;;;;;5018559;28;21131;-79
2023/05/13 00:58:31;;;;;;;1.33;0.95;;;10.30;99.90;;;;;;5024051;28;20914;-80
2023/05/13 01:01:30;;;;;;;0.60;0.60;;;10.40;99.90;;;;;;5019040;28;20434;-79
2023/05/13 01:04:28;;;;;;;0.82;0.82;;;10.50;94.30;;;;;;5022017;28;20439;-79
2023/05/13 01:07:06;;;;;;;3.78;1.15;;;10.50;58.60;;;;;;5014048;28;20436;-80
2023/05/13 01:09:39;;;;;;;5.68;0.90;;;10.50;1.00;;;;;;5026820;28;20426;-79
2023/05/13 01:12:16;;;;;;;0.80;0.75;;;10.50;1.00;;;;;;5024072;28;20462;-79
2023/05/13 01:15:05;;;;;;;0.90;0.90;;;10.40;1.00;;;;;;5026451;28;20439;-80
2023/05/13 01:17:54;;;;;;;1.08;0.77;;;10.40;1.00;;;;;;5026458;28;20517;-80
2023/05/13 01:20:22;;;;;;;1.40;0.80;;;10.40;1.00;;;;;;5028619;28;20476;-80
2023/05/13 01:22:52;;;;;;;0.85;0.75;;;10.40;1.00;;;;;;5027321;28;20430;-79
2023/05/13 01:25:19;;;;;;;2.35;0.90;;;10.30;1.00;;;;;;5020121;28;20438;-80
2023/05/13 01:27:46;;;;;;;1.33;1.23;;;10.30;1.00;;;;;;5029499;28;20489;-79
2023/05/13 01:30:13;;;;;;;1.23;0.80;;;10.40;1.00;;;;;;5014952;28;20787;-79
2023/05/13 01:32:40;;;;;;;0.80;0.80;;;10.40;1.00;;;;;;5028607;28;20446;-80
2023/05/13 01:35:09;;;;;;;0.50;0.50;;;10.40;1.00;;;;;;5021802;28;21013;-80
2023/05/13 01:37:37;;;;;;;4.80;1.42;;;10.40;1.00;;;;;;5029382;28;20445;-79
2023/05/13 01:40:05;;;;;;;0.65;0.65;;;10.40;1.00;;;;;;5029248;28;20434;-79
2023/05/13 01:42:50;;;;;;;0.70;0.70;;;10.40;1.00;;;;;;5024360;28;20461;-79
2023/05/13 01:45:17;;;;;;;0.93;0.88;;;10.40;1.00;;;;;;5024523;28;20518;-80
2023/05/13 01:47:45;;;;;;;0.80;0.77;;;10.40;1.00;;;;;;5029257;28;20481;-80
2023/05/13 01:50:13;;;;;;;0.68;0.68;;;10.50;1.00;;;;;;5028559;28;20529;-80
2023/05/13 01:52:40;;;;;;;2.10;0.88;;;10.50;1.00;;;;;;5029346;28;20922;-80
2023/05/13 01:55:06;;;;;;;1.10;0.87;;;10.50;1.00;;;;;;5012721;28;20510;-79
2023/05/13 01:57:36;;;;;;;1.50;1.40;;;10.60;1.00;;;;;;5028223;28;20467;-79
2023/05/13 02:00:04;;;;;;;1.52;0.82;;;10.60;1.00;;;;;;5027001;28;20422;-81
2023/05/13 02:02:31;;;;;;;1.08;1.08;;;10.70;1.00;;;;;;5028239;28;20527;-79
2023/05/13 02:04:58;;;;;;;1.10;0.82;;;10.70;1.00;;;;;;5029425;28;20430;-79
2023/05/13 02:07:24;;;;;;;0.70;0.70;;;10.70;1.00;;;;;;5030348;28;20434;-80
2023/05/13 02:09:58;;;;;;;1.10;1.10;;;10.70;1.00;;;;;;5021802;28;20443;-80
2023/05/13 02:12:25;;;;;;;1.15;1.05;;;10.70;1.00;;;;;;5031109;28;20466;-79
2023/05/13 02:14:55;;;;;;;1.05;1.05;;;10.80;1.00;;;;;;5030841;28;20431;-79
2023/05/13 02:17:22;;;;;;;0.50;0.50;;;10.70;1.00;;;;;;5032263;28;20936;-80
2023/05/13 02:19:49;;;;;;;1.00;0.80;;;10.70;1.00;;;;;;5033397;28;20473;-79
2023/05/13 02:22:19;;;;;;;0.80;0.80;;;10.70;1.00;;;;;;5018550;28;20540;-80
2023/05/13 02:24:45;;;;;;;0.73;0.73;;;10.60;1.00;;;;;;5029467;28;21014;-79
2023/05/13 02:27:15;;;;;;;0.98;0.65;;;10.70;1.00;;;;;;5029878;28;21161;-79
2023/05/13 02:29:41;;;;;;;2.00;1.30;;;10.70;1.00;;;;;;5032930;28;20844;-79
2023/05/13 02:32:08;;;;;;;4.40;1.00;;;10.60;1.00;;;;;;5029906;28;20518;-79
2023/05/13 02:34:35;;;;;;;0.57;0.57;;;10.50;1.00;;;;;;5030148;28;20439;-78
2023/05/13 02:37:02;;;;;;;0.90;0.90;;;10.50;1.00;;;;;;5030754;28;20518;-78
2023/05/13 02:39:31;;;;;;;1.02;0.82;;;10.50;1.00;;;;;;5030019;28;20463;-79
2023/05/13 02:42:01;;;;;;;0.90;0.90;;;10.40;1.00;;;;;;5033217;28;20514;-79
2023/05/13 02:44:28;;;;;;;0.77;0.77;;;10.20;1.00;;;;;;5031469;28;20442;-79
2023/05/13 02:46:55;;;;;;;0.57;0.57;;;10.10;1.00;;;;;;5027894;28;20443;-79
2023/05/13 02:49:22;;;;;;;0.98;0.98;;;10.00;1.00;;;;;;5029436;28;20434;-78
2023/05/13 02:51:49;;;;;;;1.70;1.10;;;10.00;1.00;;;;;;5032738;28;20431;-80
2023/05/13 02:54:15;;;;;;;0.80;0.80;;;9.90;1.00;;;;;;5031219;28;20431;-79
2023/05/13 02:56:42;;;;;;;0.93;0.93;;;9.80;1.00;;;;;;5029250;28;20521;-78
2023/05/13 02:59:10;;;;;;;0.73;0.73;;;9.70;1.00;;;;;;5028240;28;21015;-78
2023/05/13 03:01:36;;;;;;;0.77;0.77;;;9.60;1.00;;;;;;5032345;28;20452;-78
2023/05/13 03:04:03;;;;;;;0.75;0.50;;;9.50;1.00;;;;;;5031298;28;20430;-78
2023/05/13 03:06:30;;;;;;;0.90;0.90;;;9.40;1.00;;;;;;5027064;28;20518;-78
2023/05/13 03:08:57;;;;;;;1.25;1.15;;;9.30;1.00;;;;;;5029455;28;20441;-79
2023/05/13 03:11:25;;;;;;;0.90;0.90;;;9.10;1.10;;;;;;5025753;28;20437;-78
2023/05/13 03:13:52;;;;;;;0.60;0.50;;;9.00;3.60;;;;;;5023765;28;20436;-78
2023/05/13 03:16:19;;;;;;;0.70;0.70;;;8.80;22.20;;;;;;5034723;28;21097;-78
2023/05/13 03:18:45;;;;;;;0.95;0.80;;;8.70;21.30;;;;;;5030519;28;21037;-78
2023/05/13 03:21:15;;;;;;;1.00;1.00;;;8.60;29.80;;;;;;5022827;28;21060;-79
2023/05/13 03:23:41;;;;;;;0.95;0.90;;;8.50;44.80;;;;;;5030414;28;20457;-78
2023/05/13 03:26:08;;;;;;;0.90;0.90;;;8.40;59.00;;;;;;5027330;28;20437;-78
2023/05/13 03:28:35;;;;;;;0.68;0.68;;;8.20;62.10;;;;;;5024584;28;20432;-78
2023/05/13 03:31:02;;;;;;;0.82;0.60;;;8.10;70.50;;;;;;5024434;28;20435;-78
2023/05/13 03:33:29;;;;;;;0.50;0.50;;;8.00;77.70;;;;;;5045854;28;20469;-79
2023/05/13 03:35:55;;;;;;;0.57;0.57;;;7.90;95.50;;;;;;5030917;28;20442;-78
2023/05/13 03:38:25;;;;;;;0.63;0.63;;;7.90;99.90;;;;;;5025603;28;20439;-78
2023/05/13 03:40:52;;;;;;;0.80;0.80;;;7.90;99.90;;;;;;5027816;28;20921;-78
2023/05/13 03:43:18;;;;;;;0.60;0.60;;;8.00;99.90;;;;;;5030724;28;20435;-78
2023/05/13 03:45:47;;;;;;;0.75;0.75;;;8.00;99.90;;;;;;5029524;28;20442;-78
2023/05/13 03:48:14;;;;;;;0.85;0.85;;;8.10;99.90;;;;;;5026255;28;20621;-78
2023/05/13 03:50:41;;;;;;;1.00;1.00;;;8.20;99.90;;;;;;5022407;28;20434;-78
2023/05/13 03:53:09;;;;;;;0.80;0.80;;;8.20;99.90;;;;;;5028209;28;20427;-78
2023/05/13 03:55:36;;;;;;;3.47;1.15;;;8.10;99.90;;;;;;5030254;28;20434;-78
2023/05/13 03:58:14;;;;;;;0.60;0.60;;;8.00;99.90;;;;;;5022222;28;20428;-78
2023/05/13 04:00:42;;;;;;;3.42;0.77;;;8.00;99.90;;;;;;5018299;28;20428;-78
2023/05/13 04:03:09;;;;;;;0.70;0.70;;;8.00;99.90;;;;;;5029149;28;20430;-78
2023/05/13 04:05:36;;;;;;;0.75;0.75;;;8.00;99.90;;;;;;5020968;28;20469;-78
2023/05/13 04:08:03;;;;;;;0.45;0.45;;;8.00;99.90;;;;;;5028202;28;20443;-77
2023/05/13 04:10:29;;;;;;;0.85;0.85;;;8.00;99.90;;;;;;5022566;28;20458;-78
2023/05/13 04:12:56;;;;;;;0.52;0.52;;;7.90;99.90;;;;;;5021474;28;20438;-78
2023/05/13 04:15:30;;;;;;;2.10;0.52;;;7.90;99.90;;;;;;5025282;28;20510;-78
2023/05/13 04:17:57;;;;;;;0.40;0.40;;;7.90;99.90;;;;;;5016938;28;20444;-78
2023/05/13 04:20:24;;;;;;;0.70;0.70;;;7.90;99.90;;;;;;5021382;28;20431;-78
2023/05/13 04:22:51;;;;;;;0.93;0.83;;;7.90;99.90;;;;;;5027713;28;20840;-78
2023/05/13 04:25:18;;;;;;;1.00;1.00;;;7.90;99.90;;;;;;5022485;28;20439;-78
2023/05/13 04:27:46;;;;;;;0.70;0.70;;;7.90;99.90;;;;;;5024789;28;20430;-78
2023/05/13 04:30:13;;;;;;;0.80;0.80;;;7.90;99.90;;;;;;5025446;28;20434;-78
2023/05/13 04:32:40;;;;;;;0.80;0.80;;;8.00;99.90;;;;;;5028973;28;20955;-77
2023/05/13 04:35:07;;;;;;;0.88;0.88;;;8.10;99.90;;;;;;5027772;28;20437;-78
2023/05/13 04:37:34;;;;;;;0.70;0.70;;;8.20;99.90;;;;;;5028048;28;20445;-79
2023/05/13 04:40:01;;;;;;;0.65;0.65;;;8.40;99.90;;;;;;5026715;28;20443;-79
2023/05/13 04:42:27;;;;;;;0.60;0.60;;;8.60;99.90;;;;;;5025790;28;20430;-79
2023/05/13 04:44:54;;;;;;;1.92;1.02;;;8.90;99.90;;;;;;5010257;28;20436;-79
2023/05/13 04:47:21;;;;;;;0.47;0.47;;;9.10;99.90;;;;;;5027754;28;20697;-79
2023/05/13 04:49:48;;;;;;;2.10;0.73;;;9.30;99.90;;;;;;5027984;28;20461;-79
2023/05/13 04:52:15;;;;;;;0.73;0.73;;;9.60;99.90;;;;;;5028614;28;20831;-79
2023/05/13 04:54:42;;;;;;;2.05;0.85;;;9.80;99.90;;;;;;5024945;28;20438;-79
2023/05/13 04:57:09;;;;;;;1.05;0.95;;;10.00;99.90;;;;;;5042376;28;20443;-79
2023/05/13 04:59:36;;;;;;;0.82;0.82;;;10.20;99.90;;;;;;5027533;28;20442;-79
2023/05/13 05:02:16;;;;;;;0.50;0.50;;;10.50;99.90;;;;;;5023678;28;20565;-79
2023/05/13 05:04:43;;;;;;;1.20;1.00;;;10.90;99.90;;;;;;5023112;28;20431;-78
2023/05/13 05:07:10;;;;;;;1.25;0.82;;;11.20;99.90;;;;;;5028047;28;21451;-79
2023/05/13 05:09:37;;;;;;;0.82;0.82;;;11.80;99.90;;;;;;5030140;28;20438;-79
2023/05/13 05:12:04;;;;;;;0.82;0.82;;;12.50;99.90;;;;;;5027477;28;20514;-76
2023/05/13 05:14:30;;;;;;;0.88;0.88;;;12.90;99.90;;;;;;5025994;28;20434;-77
2023/05/13 05:16:57;;;;;;;0.90;0.88;;;13.30;99.90;;;;;;5028838;28;20435;-77
2023/05/13 05:19:24;;;;;;;0.70;0.70;;;13.90;1.00;;;;;;5027731;28;20997;-76
2023/05/13 05:21:51;;;;;;;0.60;0.60;;;14.40;1.00;;;;;;5028017;28;21087;-76
2023/05/13 05:24:18;;;;;;;0.80;0.80;;;15.00;99.90;;;;;;5026314;28;20438;-76
2023/05/13 05:26:45;;;;;;;0.90;0.80;;;15.40;99.90;;;;;;5028015;28;20439;-77
2023/05/13 05:29:11;;;;;;;0.97;0.97;;;15.60;1.00;;;;;;5027835;28;20964;-78
2023/05/13 05:31:38;;;;;;;0.77;0.77;;;16.10;99.90;;;;;;5023178;28;20447;-74
2023/05/13 05:34:05;;;;;;;0.85;0.65;;;16.30;15.90;;;;;;5023612;28;20440;-73
2023/05/13 05:36:32;;;;;;;0.60;0.60;;;16.40;1.00;;;;;;5022826;28;20451;-74
2023/05/13 05:39:01;;;;;;;0.85;0.85;;;16.80;1.00;;;;;;5023801;28;20441;-77
2023/05/13 05:41:28;;;;;;;0.60;0.60;;;17.20;1.00;;;;;;5026361;28;20435;-76
2023/05/13 05:43:58;;;;;;;1.33;0.98;;;17.70;99.90;;;;;;5037723;28;20428;-76
2023/05/13 05:46:25;;;;;;;0.60;0.60;;;18.10;99.90;;;;;;5023284;28;20434;-77
2023/05/13 05:48:52;;;;;;;0.60;0.60;;;18.20;99.90;;;;;;5021833;28;20939;-76
2023/05/13 05:51:18;;;;;;;0.50;0.50;;;18.00;99.90;;;;;;5024632;28;20438;-76
2023/05/13 05:53:45;;;;;;;0.70;0.70;;;17.40;99.90;;;;;;5025726;28;20433;-77
2023/05/13 05:56:12;;;;;;;0.77;0.77;;;17.00;99.90;;;;;;5022181;28;20774;-76
2023/05/13 05:58:40;;;;;;;0.70;0.70;;;16.60;99.90;;;;;;5023492;28;20430;-76
2023/05/13 06:01:06;;;;;;;1.20;0.68;;;16.30;99.90;;;;;;5037928;28;20440;-74
2023/05/13 06:03:33;;;;;;;0.60;0.60;;;16.30;99.90;;;;;;5021324;28;20433;-74
2023/05/13 06:06:00;;;;;;;0.70;0.70;;;16.30;99.90;;;;;;5028775;28;20442;-74
2023/05/13 06:08:29;;;;;;;0.77;0.53;;;16.50;99.90;;;;;;5030056;28;20423;-73
2023/05/13 06:10:57;;;;;;;0.63;0.63;;;16.40;99.90;;;;;;5023079;28;20502;-74
2023/05/13 06:13:23;;;;;;;0.80;0.80;;;16.30;99.90;;;;;;5021493;28;20428;-76
2023/05/13 06:15:50;;;;;;;0.85;0.70;;;16.60;99.90;;;;;;5027932;28;21117;-74
2023/05/13 06:18:17;;;;;;;0.50;0.50;;;16.80;99.90;;;;;;5022756;28;20443;-76
2023/05/13 06:20:44;;;;;;;0.50;0.50;;;17.40;99.90;;;;;;5023961;28;20520;-77
2023/05/13 06:23:10;;;;;;;0.65;0.52;;;17.60;99.90;;;;;;5021709;28;20438;-77
2023/05/13 06:25:40;;;;;;;0.90;0.90;;;17.80;99.90;;;;;;5023668;28;20434;-77
2023/05/13 06:28:07;;;;;;;0.70;0.70;;;17.70;99.90;;;;;;5024317;28;20444;-77
2023/05/13 06:30:34;;;;;;;0.52;0.50;;;17.60;99.90;;;;;;5024062;28;20513;-76
2023/05/13 06:33:01;;;;;;;0.63;0.63;;;17.70;99.90;;;;;;5021673;28;20423;-77
2023/05/13 06:35:28;;;;;;;1.20;0.65;;;17.70;99.90;;;;;;5024856;28;20433;-77
2023/05/13 06:37:55;;;;;;;0.50;0.50;;;17.90;99.90;;;;;;5021275;28;20482;-77
2023/05/13 06:40:22;;;;;;;0.45;0.45;;;18.20;99.90;;;;;;5016614;28;20528;-77
2023/05/13 06:42:49;;;;;;;0.50;0.50;;;18.50;99.90;;;;;;5016234;28;20798;-76
2023/05/13 06:45:17;;;;;;;0.60;0.60;;;18.50;99.90;;;;;;5017931;28;20525;-76
2023/05/13 06:47:43;;;;;;;0.75;0.75;;;18.80;99.90;;;;;;5023564;28;20435;-76
2023/05/13 06:50:10;;;;;;;0.60;0.60;;;19.10;99.90;;;;;;5015425;28;20431;-76
2023/05/13 06:52:39;;;;;;;3.00;0.70;;;18.90;99.90;;;;;;5024386;28;20876;-76
2023/05/13 06:55:09;;;;;;;0.70;0.70;;;18.90;99.90;;;;;;5022523;28;20437;-77
2023/05/13 06:57:36;;;;;;;0.70;0.70;;;19.20;99.90;;;;;;5029688;28;20486;-76
2023/05/13 07:00:09;;;;;;;0.55;0.55;;;19.70;99.90;;;;;;5022100;28;20443;-77
2023/05/13 07:02:36;;;;;;;1.80;0.63;;;20.20;99.90;;;;;;5018312;28;20441;-76
2023/05/13 07:05:03;;;;;;;0.70;0.70;;;21.00;99.90;;;;;;5026678;28;20469;-77
2023/05/13 07:07:30;;;;;;;0.77;0.75;;;21.60;99.90;;;;;;5023080;28;20458;-76
2023/05/13 07:09:57;;;;;;;0.50;0.45;;;22.10;99.90;;;;;;5027973;28;20438;-77
2023/05/13 07:12:23;;;;;;;0.50;0.50;;;22.40;99.90;;;;;;5029810;28;20431;-77
2023/05/13 07:14:50;;;;;;;0.80;0.60;;;22.40;99.90;;;;;;5025772;28;20452;-77
2023/05/13 07:17:17;;;;;;;0.40;0.40;;;21.90;99.90;;;;;;5026660;28;20438;-77
2023/05/13 07:19:44;;;;;;;0.70;0.50;;;21.70;99.90;;;;;;5022357;28;21097;-76
2023/05/13 07:22:11;;;;;;;0.70;0.60;;;21.50;99.90;;;;;;5028986;28;20852;-77
2023/05/13 07:24:38;;;;;;;0.50;0.50;;;21.10;99.90;;;;;;5022161;28;20431;-77
2023/05/13 07:27:05;;;;;;;0.57;0.57;;;20.80;99.90;;;;;;5023663;28;20430;-80
2023/05/13 07:29:32;;;;;;;0.50;0.50;;;20.70;99.90;;;;;;5030070;28;20457;-81
2023/05/13 07:32:05;;;;;;;0.50;0.50;;;20.90;99.90;;;;;;5029640;28;20492;-80
2023/05/13 07:34:32;;;;;;;0.30;0.30;;;20.20;99.90;;;;;;5026900;28;20511;-80
2023/05/13 07:36:59;;;;;;;0.65;0.65;;;20.10;99.90;;;;;;5029126;28;20810;-79
2023/05/13 07:39:26;;;;;;;0.38;0.38;;;19.40;99.90;;;;;;5030058;28;20440;-79
2023/05/13 07:41:53;;;;;;;1.25;0.55;;;19.10;99.90;;;;;;5030761;28;22091;-79
2023/05/13 07:44:20;;;;;;;1.10;0.50;;;19.00;99.90;;;;;;5019881;28;20813;-80
2023/05/13 07:46:52;;;;;;;0.32;0.32;;;19.10;99.90;;;;;;5025561;28;20437;-79
2023/05/13 07:49:20;;;;;;;0.43;0.43;;;19.60;99.90;;;;;;5026646;28;20434;-79
2023/05/13 07:51:47;;;;;;;0.40;0.40;;;20.80;99.90;;;;;;5029452;28;20434;-80
2023/05/13 07:54:13;;;;;;;0.60;0.60;;;21.60;99.90;;;;;;5027126;28;20435;-80
2023/05/13 07:56:42;;;;;;;0.65;0.65;;;21.80;99.90;;;;;;5026334;28;20435;-80
2023/05/13 07:59:09;;;;;;;1.30;0.47;;;22.40;99.90;;;;;;5027461;28;20430;-79
2023/05/13 08:01:39;;;;;;;0.40;0.40;;;22.20;99.90;;;;;;5026026;28;20427;-80
2023/05/13 08:04:05;;;;;;;0.60;0.60;;;22.50;99.90;;;;;;5019194;28;20432;-80
2023/05/13 08:06:32;;;;;;;0.40;0.40;;;22.60;99.90;;;;;;5017324;28;21219;-80
2023/05/13 08:09:00;;;;;;;0.47;0.47;;;22.50;99.90;;;;;;5019115;28;20431;-79
2023/05/13 08:11:29;;;;;;;0.40;0.40;;;22.20;99.90;;;;;;5021539;28;20516;-80
2023/05/13 08:14:04;;;;;;;0.50;0.50;;;22.50;99.90;;;;;;5028874;28;20431;-80
2023/05/13 08:16:34;;;;;;;1.30;0.75;;;23.00;99.90;;;;;;5019961;28;20436;-80
2023/05/13 08:19:01;;;;;;;0.55;0.55;;;23.30;99.90;;;;;;5021737;28;20430;-80
2023/05/13 08:21:28;;;;;;;0.60;0.60;;;23.60;99.90;;;;;;5021921;28;21261;-82
2023/05/13 08:23:55;;;;;;;0.40;0.40;;;23.10;99.90;;;;;;5020542;28;20432;-81
2023/05/13 08:26:22;;;;;;;1.00;0.65;;;22.60;99.90;;;;;;5018518;28;20434;-80
2023/05/13 08:28:49;;;;;;;0.70;0.70;;;22.80;99.90;;;;;;5023282;28;20442;-80
2023/05/13 08:31:20;;;;;;;0.40;0.40;;;23.30;99.90;;;;;;5041693;28;20506;-80
2023/05/13 08:33:47;;;;;;;0.63;0.63;;;23.40;99.90;;;;;;5026992;28;20480;-81
2023/05/13 08:36:14;;;;;;;0.57;0.57;;;23.50;99.90;;;;;;5026424;28;20447;-80
2023/05/13 08:38:45;;;;;;;0.50;0.50;;;23.50;99.90;;;;;;5021337;28;20430;-81
2023/05/13 08:41:14;;;;;;;0.60;0.60;;;23.50;99.90;;;;;;5017071;28;20436;-80
2023/05/13 08:43:46;;;;;;;0.40;0.40;;;24.10;99.90;;;;;;5017222;28;20471;-80
2023/05/13 08:46:15;;;;;;;0.50;0.50;;;24.20;99.90;;;;;;5027815;28;20439;-81
2023/05/13 08:48:44;;;;;;;0.43;0.43;;;24.30;99.90;;;;;;5039937;28;20444;-80
2023/05/13 08:51:11;;;;;;;1.20;0.50;;;24.40;99.90;;;;;;5025540;28;20438;-80
2023/05/13 08:53:39;;;;;;;0.60;0.60;;;23.30;99.90;;;;;;5026966;28;20444;-80
2023/05/13 08:56:08;;;;;;;0.60;0.60;;;23.30;99.90;;;;;;5029901;28;21129;-79
2023/05/13 08:58:35;;;;;;;0.55;0.55;;;23.80;99.90;;;;;;5027554;28;20431;-81
2023/05/13 09:01:04;;;;;;;0.50;0.50;;;23.20;99.90;;;;;;5028200;28;20442;-80
2023/05/13 09:03:31;;;;;;;3.00;0.73;;;22.90;99.90;;;;;;5017693;28;20810;-81
2023/05/13 09:06:01;;;;;;;0.47;0.47;;;23.40;99.90;;;;;;5024989;28;20496;-79
2023/05/13 09:08:29;;;;;;;0.63;0.63;;;23.50;99.90;;;;;;5028112;28;20522;-81
2023/05/13 09:10:59;;;;;;;0.90;0.60;;;23.80;99.90;;;;;;5027962;28;20427;-80
2023/05/13 09:13:26;;;;;;;0.43;0.43;;;23.60;99.90;;;;;;5024356;28;20440;-79
2023/05/13 09:15:53;;;;;;;0.57;0.57;;;24.10;99.90;;;;;;5027283;28;20612;-80
2023/05/13 09:18:19;;;;;;;1.50;0.68;;;24.10;99.90;;;;;;5020269;28;20468;-81
2023/05/13 09:20:46;;;;;;;1.60;0.57;;;23.60;99.90;;;;;;5021422;28;20532;-80
2023/05/13 09:23:14;;;;;;;0.50;0.50;;;23.90;99.90;;;;;;5012032;28;20644;-81
2023/05/13 09:25:42;;;;;;;0.57;0.57;;;23.70;99.90;;;;;;5017576;28;20440;-81
2023/05/13 09:28:13;;;;;;;0.60;0.60;;;23.50;99.90;;;;;;5023240;28;20533;-80
2023/05/13 09:30:44;;;;;;;0.90;0.60;;;23.70;99.90;;;;;;5025294;28;20438;-80
2023/05/13 09:33:14;;;;;;;0.67;0.67;;;23.90;99.90;;;;;;5028686;28;20488;-80
2023/05/13 09:35:52;;;;;;;0.70;0.70;;;23.50;99.90;;;;;;5035652;28;21069;-80
2023/05/13 09:38:24;;;;;;;0.60;0.60;;;22.50;99.90;;;;;;5022100;28;20522;-79
2023/05/13 09:40:52;;;;;;;0.93;0.93;;;21.60;99.90;;;;;;5021123;28;20442;-81
2023/05/13 09:43:20;;;;;;;0.70;0.70;;;21.50;99.90;;;;;;5017297;28;20494;-80
2023/05/13 09:45:51;;;;;;;0.40;0.40;;;21.70;99.90;;;;;;5020694;28;20464;-79
2023/05/13 09:48:21;;;;;;;0.60;0.60;;;21.60;99.90;;;;;;5019869;28;20442;-80
2023/05/13 09:50:49;;;;;;;0.98;0.80;;;22.30;99.90;;;;;;5025234;28;20437;-79
2023/05/13 09:53:16;;;;;;;1.17;0.70;;;22.60;99.90;;;;;;5041907;28;20431;-79
2023/05/13 09:55:50;;;;;;;0.63;0.63;;;22.80;99.90;;;;;;5027783;28;20858;-80
2023/05/13 09:58:21;;;;;;;0.60;0.60;;;22.10;99.90;;;;;;5016387;28;20631;-79
2023/05/13 10:00:50;;;;;;;2.70;0.60;;;22.00;99.90;;;;;;5017823;28;20439;-78
2023/05/13 10:03:17;;;;;;;0.73;0.73;;;22.10;99.90;;;;;;5011328;28;20435;-80
2023/05/13 10:05:44;;;;;;;0.75;0.75;;;23.00;99.90;;;;;;5005292;28;20703;-79
2023/05/13 10:08:14;;;;;;;0.53;0.53;;;22.90;99.90;;;;;;5016020;28;20450;-82
2023/05/13 10:10:44;;;;;;;0.55;0.55;;;21.60;99.90;;;;;;5040410;28;20430;-81
2023/05/13 10:13:15;;;;;;;0.60;0.60;;;22.00;99.90;;;;;;5025079;28;20915;-82
2023/05/13 10:15:53;;;;;;;0.63;0.63;;;21.70;99.90;;;;;;5018476;28;20435;-80
2023/05/13 10:18:21;;;;;;;0.93;0.70;;;22.30;99.90;;;;;;5017323;28;20702;-79
2023/05/13 10:20:51;;;;;;;0.52;0.52;;;23.00;99.90;;;;;;5022390;28;20453;-80
2023/05/13 10:23:22;;;;;;;0.50;0.50;;;23.30;99.90;;;;;;5017425;28;20471;-82
2023/05/13 10:25:50;;;;;;;0.60;0.60;;;23.40;99.90;;;;;;5017655;28;21124;-82
2023/05/13 10:28:18;;;;;;;0.60;0.60;;;23.40;99.90;;;;;;5022928;28;20441;-82
2023/05/13 10:30:45;;;;;;;0.68;0.68;;;23.80;99.90;;;;;;5023896;28;20433;-82
2023/05/13 10:33:12;;;;;;;0.53;0.53;;;23.80;99.90;;;;;;5021262;28;20844;-81
2023/05/13 10:35:47;;;;;;;0.60;0.60;;;23.40;99.90;;;;;;5022628;28;20521;-80
2023/05/13 10:38:50;;;;;;;0.60;0.47;;;23.60;99.90;;;;;;5019740;28;20921;-80
2023/05/13 10:41:20;;;;;;;0.63;0.63;;;23.30;99.90;;;;;;5029246;28;20929;-81
2023/05/13 10:43:58;;;;;;;0.80;0.80;;;24.10;99.90;;;;;;5017250;28;20438;-81
2023/05/13 10:46:24;;;;;;;0.55;0.55;;;25.00;99.90;;;;;;5022636;28;20964;-80
2023/05/13 10:48:55;;;;;;;1.67;0.67;;;25.60;99.90;;;;;;5018317;28;20432;-80
2023/05/13 10:51:24;;;;;;;0.70;0.70;;;26.50;99.90;;;;;;5016257;28;20991;-81
2023/05/13 10:53:52;;;;;;;0.70;0.70;;;26.40;99.90;;;;;;5022455;28;21020;-80
2023/05/13 10:56:24;;;;;;;2.40;0.80;;;26.70;99.90;;;;;;5020695;28;20458;-83
2023/05/13 10:59:04;;;;;;;0.80;0.80;;;26.90;99.90;;;;;;5015086;28;20476;-81
2023/05/13 11:01:43;;;;;;;0.75;0.75;;;26.40;99.90;;;;;;5021257;28;20431;-81
2023/05/13 11:04:15;;;;;;;0.80;0.80;;;25.70;99.90;;;;;;5020136;28;20443;-81
2023/05/13 11:06:45;;;;;;;0.90;0.90;;;25.50;99.90;;;;;;5036337;28;20446;-81
2023/05/13 11:09:29;;;;;;;0.60;0.60;;;24.60;99.90;;;;;;5011403;28;20947;-82
2023/05/13 11:12:03;;;;;;;0.70;0.70;;;23.70;99.90;;;;;;5019054;28;20558;-80
2023/05/13 11:14:30;;;;;;;0.70;0.70;;;23.20;99.90;;;;;;5013521;28;20439;-80
2023/05/13 11:17:00;;;;;;;0.63;0.63;;;22.20;99.90;;;;;;5016192;28;20444;-80
2023/05/13 11:19:31;;;;;;;0.50;0.50;;;21.90;99.90;;;;;;5020834;28;20443;-79
2023/05/13 11:22:15;;;;;;;0.65;0.65;;;21.80;99.90;;;;;;5020012;28;20446;-81
2023/05/13 11:24:45;;;;;;;1.10;0.65;;;21.50;99.90;;;;;;5020158;28;20430;-79
2023/05/13 11:27:17;;;;;;;0.60;0.60;;;21.50;99.90;;;;;;5021649;28;20496;-79
2023/05/13 11:29:52;;;;;;;0.60;0.40;;;21.50;99.90;;;;;;5023646;28;20450;-80
2023/05/13 11:32:50;;;;;;;0.82;0.82;;;21.20;99.90;;;;;;5017561;28;20444;-79
2023/05/13 11:35:31;;;;;;;0.50;0.50;;;21.00;99.90;;;;;;5023314;28;20441;-80
2023/05/13 11:37:59;;;;;;;0.60;0.60;;;20.80;99.90;;;;;;5022299;28;20445;-79
2023/05/13 11:40:31;;;;;;;0.75;0.75;;;20.70;99.90;;;;;;5018679;28;20476;-79
2023/05/13 11:42:59;;;;;;;0.90;0.90;;;20.90;99.90;;;;;;5024606;28;20503;-78
2023/05/13 11:45:29;;;;;;;0.70;0.70;;;20.70;99.90;;;;;;5018898;28;20941;-79
2023/05/13 11:47:56;;;;;;;0.60;0.60;;;20.60;99.90;;;;;;5023753;28;20532;-79
2023/05/13 11:50:34;;;;;;;0.60;0.60;;;20.80;99.90;;;;;;5023859;28;20845;-80
2023/05/13 11:53:01;;;;;;;0.70;0.70;;;21.20;99.90;;;;;;5016960;28;20430;-80
2023/05/13 11:55:32;;;;;;;0.52;0.52;;;21.60;99.90;;;;;;5015779;28;20431;-79
2023/05/13 11:57:59;;;;;;;0.50;0.50;;;22.00;99.90;;;;;;5018765;28;20464;-80
2023/05/13 12:00:31;;;;;;;0.60;0.60;;;22.20;99.90;;;;;;5018138;28;20428;-79
2023/05/13 12:02:59;;;;;;;0.50;0.50;;;22.70;99.90;;;;;;5023025;28;20822;-79
2023/05/13 12:05:29;;;;;;;0.63;0.63;;;22.50;99.90;;;;;;5019500;28;20443;-78
2023/05/13 12:07:57;;;;;;;0.43;0.43;;;22.60;99.90;;;;;;5020910;28;20522;-79
2023/05/13 12:10:25;;;;;;;0.70;0.67;;;23.00;99.90;;;;;;5016580;28;20430;-79
2023/05/13 12:12:52;;;;;;;0.70;0.70;;;23.10;99.90;;;;;;5019132;28;20434;-77
2023/05/13 12:15:20;;;;;;;0.93;0.57;;;23.20;99.90;;;;;;5024741;28;20422;-79
2023/05/13 12:17:48;;;;;;;0.55;0.55;;;23.90;99.90;;;;;;5016675;28;20435;-79
2023/05/13 12:20:17;;;;;;;0.40;0.40;;;24.70;99.90;;;;;;5015795;28;20436;-79
2023/05/13 12:22:44;;;;;;;0.50;0.50;;;25.10;99.90;;;;;;5011202;28;20459;-78
2023/05/13 12:25:46;;;;;;;0.73;0.73;;;24.90;99.90;;;;;;5007430;28;21298;-81
2023/05/13 12:28:22;;;;;;;1.00;0.60;;;24.40;99.90;;;;;;5019056;28;21598;-79
2023/05/13 12:31:04;;;;;;;0.50;0.50;;;23.70;99.90;;;;;;5019097;28;20431;-79
2023/05/13 12:33:39;;;;;;;0.50;0.50;;;23.30;99.90;;;;;;5025896;28;20514;-80
2023/05/13 12:36:26;;;;;;;0.60;0.60;;;23.10;99.90;;;;;;5040003;28;20431;-79
2023/05/13 12:38:58;;;;;;;0.65;0.65;;;23.10;99.90;;;;;;5021363;28;20439;-78
2023/05/13 12:41:51;;;;;;;0.75;0.75;;;23.20;99.90;;;;;;5021533;28;20446;-79
2023/05/13 12:44:18;;;;;;;0.60;0.60;;;23.70;99.90;;;;;;5025169;28;20435;-79
2023/05/13 12:46:51;;;;;;;3.30;0.80;;;24.00;99.90;;;;;;5042148;28;20415;-79
2023/05/13 12:49:18;;;;;;;0.73;0.67;;;23.80;99.90;;;;;;5023231;28;20794;-79
2023/05/13 12:51:45;;;;;;;0.40;0.40;;;23.00;99.90;;;;;;5023909;28;20438;-80
2023/05/13 12:54:12;;;;;;;0.50;0.50;;;22.20;99.90;;;;;;5025891;28;20434;-79
2023/05/13 12:56:43;;;;;;;0.45;0.43;;;21.40;99.90;;;;;;5022256;28;20783;-78
2023/05/13 12:59:12;;;;;;;0.50;0.50;;;21.00;99.90;;;;;;5025983;28;21125;-79
2023/05/13 13:01:39;;;;;;;0.68;0.50;;;20.40;99.90;;;;;;5028158;28;20446;-80